F/V Roger Christian3 — FUFL — position and weather

sailwx.info

Track history (hours):
 
Tides and Currents Weather Stations Pressure Air Temp Water Temp Dewpoint Dewpoint Depression Visibility Wind Speed Wind Dir Waves Ship Positions

F/V Roger Christian3

Last reported at 2014-Dec-22 06:17 UTC. Time now 2014-Dec-22 11:21 UTC.
Position N 43°17' E 004°14'.

Length 24 m; draft 4 m.

Type: Fishing. MMSI: 228173800.

Date/timePositionNaut miles runAvg speedWind from/ knotsBaromVisibWave heightAir tempDewpointWater temp
2014-Dec-22 06:17N 43°17' E 004°14'  
2014-Dec-19 14:33N 43°08' E 003°50'10 4.5
2014-Dec-19 12:25N 42°59' E 003°55'4 4.9
2014-Dec-19 11:33N 42°57' E 003°59'7 2.9
2014-Dec-19 09:05N 42°57' E 004°09'34 3.7
2014-Dec-19 00:07N 43°24' E 003°42'0 0.0
2014-Dec-18 23:30N 43°24' E 003°42'0 0.0
2014-Dec-18 22:25N 43°24' E 003°42'0 0.0
2014-Dec-18 21:24N 43°24' E 003°42'0 0.0
2014-Dec-18 20:29N 43°24' E 003°42'0 0.0
2014-Dec-18 19:08N 43°24' E 003°42'0 0.0
2014-Dec-18 18:33N 43°24' E 003°42'0 0.0
2014-Dec-18 17:33N 43°24' E 003°42'0 0.1
2014-Dec-18 16:32N 43°24' E 003°42'17 8.1
2014-Dec-18 14:24N 43°09' E 003°54'9 4.4
2014-Dec-18 12:25N 43°02' E 004°01'3 3.1
2014-Dec-18 11:25N 43°00' E 004°05'5 4.0
2014-Dec-18 10:10N 42°59' E 004°11'7 2.4
2014-Dec-18 07:21N 42°57' E 004°20'3 4.2
2014-Dec-18 06:34N 42°59' E 004°17'5 4.5
2014-Dec-18 05:31N 43°02' E 004°11'4 4.4
2014-Dec-18 04:33N 43°04' E 004°07'8 7.5
2014-Dec-18 03:33N 43°09' E 003°59'1111.0
2014-Dec-18 02:32N 43°18' E 003°49'8 7.1
2014-Dec-18 01:24N 43°24' E 003°42'0 0.0
2014-Dec-17 23:25N 43°24' E 003°42'0 0.0
2014-Dec-17 17:14N 43°24' E 003°42'0 0.2
2014-Dec-17 16:30N 43°24' E 003°42'1411.0
2014-Dec-17 15:16N 43°12' E 003°50'7 9.2
2014-Dec-17 14:29N 43°05' E 003°54'10 6.6
2014-Dec-17 13:03N 42°56' E 003°56'1 1.7
2014-Dec-17 12:27N 42°55' E 003°56'3 2.6
2014-Dec-17 11:20N 42°54' E 003°53'4 3.3
2014-Dec-17 10:04N 42°57' E 003°57'3 2.8
2014-Dec-17 09:04N 42°54' E 003°55'2 3.2
2014-Dec-17 08:33N 42°53' E 003°55'2 2.0
2014-Dec-17 07:19N 42°55' E 003°57'31 3.2
2014-Dec-16 21:28N 43°24' E 003°42'0 0.0
2014-Dec-16 20:30N 43°24' E 003°42'0 0.0
2014-Dec-16 19:30N 43°24' E 003°42'0 0.1
2014-Dec-16 17:30N 43°24' E 003°42'0 0.0
2014-Dec-16 16:30N 43°24' E 003°42'9 8.7
2014-Dec-16 15:30N 43°15' E 003°45'1110.7
2014-Dec-16 14:30N 43°05' E 003°50'1010.6
2014-Dec-16 13:33N 42°56' E 003°54'2 1.9
2014-Dec-16 12:32N 42°55' E 003°56'2 0.9
2014-Dec-16 10:32N 42°53' E 003°56'3 2.5
2014-Dec-16 09:21N 42°55' E 003°54'2 1.9
2014-Dec-16 08:24N 42°55' E 003°52'4 3.8
2014-Dec-16 07:18N 42°51' E 003°53'34 3.4
2014-Dec-15 21:22N 43°24' E 003°42'0 0.0
2014-Dec-15 16:16N 43°24' E 003°42'7 6.4
2014-Dec-15 15:09N 43°17' E 003°44'1011.1
2014-Dec-15 14:14N 43°07' E 003°47'16 9.5
2014-Dec-15 12:33N 42°51' E 003°52'3 3.4
2014-Dec-15 11:33N 42°55' E 003°50'2 1.3
2014-Dec-15 10:12N 42°56' E 003°51'4 4.0
2014-Dec-15 09:18N 42°60' E 003°50'2 1.5
2014-Dec-15 08:19N 42°60' E 003°52'25 0.7
2014-Dec-13 18:10N 43°24' E 003°42'0 0.0
2014-Dec-12 16:19N 43°24' E 003°42'2 2.4
2014-Dec-12 15:33N 43°22' E 003°43'2411.5
2014-Dec-12 13:26N 43°01' E 003°59'5 3.4
2014-Dec-12 12:05N 43°04' E 003°55'2 2.6
2014-Dec-12 11:09N 43°03' E 003°52'2 1.1
2014-Dec-12 09:13N 43°05' E 003°50'4 4.7
2014-Dec-12 08:19N 43°09' E 003°52'  
Track history (hours):
 
Tides and Currents Weather Stations Pressure Air Temp Water Temp Dewpoint Dewpoint Depression Visibility Wind Speed Wind Dir Waves Ship Positions

F/V Roger Christian3

Last reported at 2014-Dec-22 06:17 UTC. Time now 2014-Dec-22 11:22 UTC.
Position N 43°17' E 004°14'.

Length 24 m; draft 4 m.

Type: Fishing. MMSI: 228173800.

Date/timePositionNaut miles runAvg speedWind from/ knotsBaromVisibWave heightAir tempDewpointWater temp
2014-Dec-22 06:17N 43°17' E 004°14'  
2014-Dec-19 14:33N 43°08' E 003°50'10 4.5
2014-Dec-19 12:25N 42°59' E 003°55'4 4.9
2014-Dec-19 11:33N 42°57' E 003°59'7 2.9
2014-Dec-19 09:05N 42°57' E 004°09'34 3.7
2014-Dec-19 00:07N 43°24' E 003°42'0 0.0
2014-Dec-18 23:30N 43°24' E 003°42'0 0.0
2014-Dec-18 22:25N 43°24' E 003°42'0 0.0
2014-Dec-18 21:24N 43°24' E 003°42'0 0.0
2014-Dec-18 20:29N 43°24' E 003°42'0 0.0
2014-Dec-18 19:08N 43°24' E 003°42'0 0.0
2014-Dec-18 18:33N 43°24' E 003°42'0 0.0
2014-Dec-18 17:33N 43°24' E 003°42'0 0.1
2014-Dec-18 16:32N 43°24' E 003°42'17 8.1
2014-Dec-18 14:24N 43°09' E 003°54'9 4.4
2014-Dec-18 12:25N 43°02' E 004°01'3 3.1
2014-Dec-18 11:25N 43°00' E 004°05'5 4.0
2014-Dec-18 10:10N 42°59' E 004°11'7 2.4
2014-Dec-18 07:21N 42°57' E 004°20'3 4.2
2014-Dec-18 06:34N 42°59' E 004°17'5 4.5
2014-Dec-18 05:31N 43°02' E 004°11'4 4.4
2014-Dec-18 04:33N 43°04' E 004°07'8 7.5
2014-Dec-18 03:33N 43°09' E 003°59'1111.0
2014-Dec-18 02:32N 43°18' E 003°49'8 7.1
2014-Dec-18 01:24N 43°24' E 003°42'0 0.0
2014-Dec-17 23:25N 43°24' E 003°42'0 0.0
2014-Dec-17 17:14N 43°24' E 003°42'0 0.2
2014-Dec-17 16:30N 43°24' E 003°42'1411.0
2014-Dec-17 15:16N 43°12' E 003°50'7 9.2
2014-Dec-17 14:29N 43°05' E 003°54'10 6.6
2014-Dec-17 13:03N 42°56' E 003°56'1 1.7
2014-Dec-17 12:27N 42°55' E 003°56'3 2.6
2014-Dec-17 11:20N 42°54' E 003°53'4 3.3
2014-Dec-17 10:04N 42°57' E 003°57'3 2.8
2014-Dec-17 09:04N 42°54' E 003°55'2 3.2
2014-Dec-17 08:33N 42°53' E 003°55'2 2.0
2014-Dec-17 07:19N 42°55' E 003°57'31 3.2
2014-Dec-16 21:28N 43°24' E 003°42'0 0.0
2014-Dec-16 20:30N 43°24' E 003°42'0 0.0
2014-Dec-16 19:30N 43°24' E 003°42'0 0.1
2014-Dec-16 17:30N 43°24' E 003°42'0 0.0
2014-Dec-16 16:30N 43°24' E 003°42'9 8.7
2014-Dec-16 15:30N 43°15' E 003°45'1110.7
2014-Dec-16 14:30N 43°05' E 003°50'1010.6
2014-Dec-16 13:33N 42°56' E 003°54'2 1.9
2014-Dec-16 12:32N 42°55' E 003°56'2 0.9
2014-Dec-16 10:32N 42°53' E 003°56'3 2.5
2014-Dec-16 09:21N 42°55' E 003°54'2 1.9
2014-Dec-16 08:24N 42°55' E 003°52'4 3.8
2014-Dec-16 07:18N 42°51' E 003°53'34 3.4
2014-Dec-15 21:22N 43°24' E 003°42'0 0.0
2014-Dec-15 16:16N 43°24' E 003°42'7 6.4
2014-Dec-15 15:09N 43°17' E 003°44'1011.1
2014-Dec-15 14:14N 43°07' E 003°47'16 9.5
2014-Dec-15 12:33N 42°51' E 003°52'3 3.4
2014-Dec-15 11:33N 42°55' E 003°50'2 1.3
2014-Dec-15 10:12N 42°56' E 003°51'4 4.0
2014-Dec-15 09:18N 42°60' E 003°50'2 1.5
2014-Dec-15 08:19N 42°60' E 003°52'25 0.7
2014-Dec-13 18:10N 43°24' E 003°42'0 0.0
2014-Dec-12 16:19N 43°24' E 003°42'2 2.4
2014-Dec-12 15:33N 43°22' E 003°43'2411.5
2014-Dec-12 13:26N 43°01' E 003°59'5 3.4
2014-Dec-12 12:05N 43°04' E 003°55'2 2.6
2014-Dec-12 11:09N 43°03' E 003°52'2 1.1
2014-Dec-12 09:13N 43°05' E 003°50'4 4.7
2014-Dec-12 08:19N 43°09' E 003°52'  

Dump ship's entire track history